createdAt,value
2019-03-31T00:00:08.010Z,37.73
2019-03-31T00:02:42.838Z,37.75
2019-03-31T00:05:17.427Z,37.72
2019-03-31T00:07:51.972Z,37.67
2019-03-31T00:10:26.569Z,37.72
2019-03-31T00:13:01.117Z,37.57
2019-03-31T00:15:35.716Z,37.60
2019-03-31T00:18:10.293Z,37.59
2019-03-31T00:20:44.944Z,37.64
2019-03-31T00:23:19.778Z,37.59
2019-03-31T00:25:54.314Z,37.34
2019-03-31T00:28:28.812Z,37.52
2019-03-31T00:31:03.813Z,37.50
2019-03-31T00:33:38.518Z,37.44
2019-03-31T00:36:13.524Z,37.31
2019-03-31T00:38:47.978Z,37.35
2019-03-31T00:41:22.901Z,37.40
2019-03-31T00:43:57.447Z,37.27
2019-03-31T00:46:32.097Z,37.22
2019-03-31T00:49:06.798Z,37.22
2019-03-31T00:51:41.509Z,37.23
2019-03-31T00:54:16.227Z,37.10
2019-03-31T00:56:50.802Z,37.17
2019-03-31T00:59:25.229Z,37.06
2019-03-31T01:02:04.130Z,37.06
2019-03-31T01:04:38.940Z,37.16
2019-03-31T01:07:13.964Z,37.08
2019-03-31T01:09:48.998Z,36.91
2019-03-31T01:12:24.444Z,36.95
2019-03-31T01:14:59.073Z,36.88
2019-03-31T01:17:33.733Z,36.88
2019-03-31T01:20:08.401Z,36.89
2019-03-31T01:22:43.038Z,36.86
2019-03-31T01:25:18.397Z,36.78
2019-03-31T01:27:53.222Z,36.87
2019-03-31T01:30:27.882Z,36.88
2019-03-31T01:33:02.819Z,36.80
2019-03-31T01:35:37.338Z,36.76
2019-03-31T01:38:12.448Z,36.60
2019-03-31T01:40:47.023Z,36.69
2019-03-31T01:43:21.586Z,36.69
2019-03-31T01:45:56.215Z,36.68
2019-03-31T01:48:30.832Z,36.58
2019-03-31T01:51:05.968Z,36.62
2019-03-31T01:53:40.549Z,36.63
2019-03-31T01:56:15.316Z,36.52
2019-03-31T01:58:49.995Z,36.62
2019-03-31T02:01:24.698Z,36.50
2019-03-31T02:03:59.407Z,36.50
2019-03-31T02:06:34.017Z,36.52
2019-03-31T02:09:08.918Z,36.49
2019-03-31T02:11:43.405Z,36.54
2019-03-31T02:14:17.972Z,36.42
2019-03-31T02:16:52.675Z,36.48
2019-03-31T02:19:27.215Z,36.39
2019-03-31T02:22:01.714Z,36.40
2019-03-31T02:24:36.286Z,36.36
2019-03-31T02:27:11.298Z,36.32
2019-03-31T02:29:46.025Z,36.39
2019-03-31T02:32:23.985Z,36.31
2019-03-31T02:34:56.755Z,36.27
2019-03-31T02:37:31.715Z,36.32
2019-03-31T02:40:06.353Z,36.20
2019-03-31T02:42:40.869Z,36.26
2019-03-31T02:45:15.411Z,36.26
2019-03-31T02:47:50.148Z,36.23
2019-03-31T02:50:46.356Z,36.18
2019-03-31T02:53:22.037Z,36.23
2019-03-31T02:55:56.652Z,36.09
2019-03-31T02:58:31.237Z,36.09
2019-03-31T03:01:06.889Z,36.13
2019-03-31T03:03:41.407Z,36.07
2019-03-31T03:06:16.032Z,36.07
2019-03-31T03:08:51.469Z,36.02
2019-03-31T03:11:25.993Z,35.97
2019-03-31T03:14:01.839Z,36.05
2019-03-31T03:16:36.289Z,36.04
2019-03-31T03:19:10.850Z,36.04
2019-03-31T03:21:45.484Z,36.01
2019-03-31T03:24:20.010Z,35.96
2019-03-31T03:26:54.678Z,35.93
2019-03-31T03:29:29.393Z,35.82
2019-03-31T03:32:05.588Z,35.92
2019-03-31T03:34:40.297Z,35.90
2019-03-31T03:37:14.850Z,35.84
2019-03-31T03:39:49.445Z,35.85
2019-03-31T03:42:24.030Z,35.81
2019-03-31T03:44:58.460Z,35.71
2019-03-31T03:47:33.186Z,35.79
2019-03-31T03:50:08.573Z,35.73
2019-03-31T03:52:43.402Z,35.74
2019-03-31T03:55:17.964Z,35.62
2019-03-31T03:57:52.672Z,35.68
2019-03-31T04:00:27.208Z,35.64
2019-03-31T04:03:01.680Z,35.63
2019-03-31T04:05:36.223Z,35.62
2019-03-31T04:08:10.771Z,35.56
2019-03-31T04:11:29.048Z,35.56
2019-03-31T04:14:03.509Z,35.54
2019-03-31T04:16:38.105Z,35.50
2019-03-31T04:19:12.675Z,35.47
2019-03-31T04:21:47.241Z,35.44
2019-03-31T04:24:22.409Z,35.43
2019-03-31T04:26:56.931Z,35.38
2019-03-31T04:29:31.483Z,35.38
2019-03-31T04:32:06.055Z,35.35
2019-03-31T04:34:40.485Z,35.33
2019-03-31T04:37:15.040Z,35.29
2019-03-31T04:39:50.900Z,35.31
2019-03-31T04:42:25.431Z,35.26
2019-03-31T04:45:00.003Z,35.27
2019-03-31T04:47:34.625Z,35.16
2019-03-31T04:50:09.493Z,35.14
2019-03-31T04:52:44.030Z,35.13
2019-03-31T04:55:18.624Z,35.12
2019-03-31T04:57:53.444Z,35.09
2019-03-31T05:00:28.007Z,35.08
2019-03-31T05:03:02.698Z,34.99
2019-03-31T05:05:37.264Z,34.97
2019-03-31T05:08:11.885Z,34.95
2019-03-31T05:10:46.456Z,34.94
2019-03-31T05:13:20.982Z,34.93
2019-03-31T05:15:55.604Z,34.93
2019-03-31T05:18:30.148Z,34.90
2019-03-31T05:21:04.624Z,34.83
2019-03-31T05:23:39.240Z,34.85
2019-03-31T05:26:13.930Z,34.83
2019-03-31T05:28:48.475Z,34.83
2019-03-31T05:31:23.292Z,34.77
2019-03-31T05:33:57.837Z,34.76
2019-03-31T05:36:33.030Z,34.75
2019-03-31T05:39:08.930Z,34.74
2019-03-31T05:41:43.454Z,34.73
2019-03-31T05:44:18.172Z,34.68
2019-03-31T05:46:53.202Z,34.67
2019-03-31T05:49:27.800Z,34.66
2019-03-31T05:52:02.829Z,34.63
2019-03-31T05:54:37.483Z,34.62
2019-03-31T05:57:12.063Z,34.58
2019-03-31T05:59:46.614Z,34.58
2019-03-31T06:02:21.338Z,34.58
2019-03-31T06:04:55.797Z,34.54
2019-03-31T06:07:30.324Z,34.56
2019-03-31T06:10:06.976Z,34.53
2019-03-31T06:12:41.444Z,34.52
2019-03-31T06:15:16.103Z,34.51
2019-03-31T06:17:50.728Z,34.50
2019-03-31T06:20:25.330Z,34.50
2019-03-31T06:22:59.884Z,34.50
2019-03-31T06:25:34.449Z,34.47
2019-03-31T06:28:08.965Z,34.45
2019-03-31T06:30:43.980Z,34.48
2019-03-31T06:33:18.632Z,34.46
2019-03-31T06:35:53.193Z,34.45
2019-03-31T06:38:27.736Z,34.49
2019-03-31T06:41:02.610Z,34.44
2019-03-31T06:43:37.141Z,34.55
2019-03-31T06:46:11.776Z,34.51
2019-03-31T06:48:46.516Z,34.42
2019-03-31T06:51:21.202Z,34.38
2019-03-31T06:53:55.710Z,34.47
2019-03-31T06:56:30.270Z,34.49
2019-03-31T06:59:04.904Z,34.53
2019-03-31T07:01:39.630Z,34.66
2019-03-31T07:04:14.136Z,34.96
2019-03-31T07:06:48.652Z,34.84
2019-03-31T07:09:23.565Z,35.18
2019-03-31T07:11:58.086Z,35.35
2019-03-31T07:14:32.658Z,35.52
2019-03-31T07:17:07.218Z,35.16
2019-03-31T07:19:43.225Z,35.28
2019-03-31T07:22:17.863Z,35.45
2019-03-31T07:24:53.171Z,35.60
2019-03-31T07:27:27.866Z,35.62
2019-03-31T07:30:02.531Z,35.67
2019-03-31T07:32:37.735Z,35.61
2019-03-31T07:35:18.687Z,35.69
2019-03-31T07:37:49.226Z,36.08
2019-03-31T07:40:24.207Z,36.27
2019-03-31T07:42:59.220Z,36.45
2019-03-31T07:45:33.773Z,35.73
2019-03-31T07:48:09.979Z,35.62
2019-03-31T07:50:44.520Z,35.54
2019-03-31T07:53:19.285Z,35.76
2019-03-31T07:55:53.938Z,35.62
2019-03-31T07:58:28.623Z,35.57
2019-03-31T08:01:03.897Z,35.61
2019-03-31T08:03:38.571Z,35.92
2019-03-31T08:06:13.410Z,35.66
2019-03-31T08:08:48.105Z,35.65
2019-03-31T08:11:22.958Z,36.43
2019-03-31T08:13:57.710Z,35.97
2019-03-31T08:16:34.630Z,36.07
2019-03-31T08:19:09.503Z,36.14
2019-03-31T08:21:44.072Z,36.18
2019-03-31T08:24:18.674Z,35.87
2019-03-31T08:26:53.236Z,36.03
2019-03-31T08:29:28.034Z,36.12
2019-03-31T08:32:02.604Z,36.24
2019-03-31T08:34:38.944Z,36.10
2019-03-31T08:37:13.590Z,36.11
2019-03-31T08:39:48.217Z,36.01
2019-03-31T08:42:22.877Z,36.05
2019-03-31T08:44:57.504Z,35.98
2019-03-31T08:47:32.407Z,35.90
2019-03-31T08:50:09.328Z,35.91
2019-03-31T08:52:43.867Z,35.79
2019-03-31T08:55:18.796Z,35.83
2019-03-31T08:57:53.589Z,35.88
2019-03-31T09:00:50.264Z,35.85
2019-03-31T09:03:25.026Z,35.85
2019-03-31T09:06:02.292Z,35.89
2019-03-31T09:08:35.852Z,35.84
2019-03-31T09:11:10.402Z,35.88
2019-03-31T09:13:44.906Z,35.95
2019-03-31T09:16:19.553Z,36.23
2019-03-31T09:18:54.141Z,36.09
2019-03-31T09:21:28.759Z,35.98
2019-03-31T09:24:03.696Z,36.11
2019-03-31T09:26:38.398Z,36.09
2019-03-31T09:29:13.380Z,36.17
2019-03-31T09:31:47.906Z,35.92
2019-03-31T09:34:22.439Z,36.36
2019-03-31T09:36:56.988Z,36.37
2019-03-31T09:39:31.539Z,36.09
2019-03-31T09:42:06.069Z,36.18
2019-03-31T09:44:40.691Z,36.04
2019-03-31T09:47:15.287Z,35.93
2019-03-31T09:49:49.946Z,35.92
2019-03-31T09:52:24.585Z,35.87
2019-03-31T09:54:59.119Z,35.83
2019-03-31T09:57:34.124Z,35.98
2019-03-31T10:00:10.392Z,35.93
2019-03-31T10:02:45.328Z,35.98
2019-03-31T10:05:21.156Z,35.97
2019-03-31T10:07:55.775Z,36.01
2019-03-31T10:10:33.890Z,36.12
2019-03-31T10:13:08.586Z,36.11
2019-03-31T10:15:43.612Z,36.26
2019-03-31T10:18:18.573Z,36.19
2019-03-31T10:20:53.388Z,36.13
2019-03-31T10:23:28.082Z,36.08
2019-03-31T10:26:02.646Z,36.16
2019-03-31T10:28:37.232Z,36.02
2019-03-31T10:31:12.020Z,36.01
2019-03-31T10:33:46.766Z,35.99
2019-03-31T10:36:21.450Z,36.02
2019-03-31T10:38:55.953Z,36.01
2019-03-31T10:41:31.043Z,35.92
2019-03-31T10:44:05.757Z,35.91
2019-03-31T10:46:40.580Z,35.88
2019-03-31T10:49:17.463Z,35.88
2019-03-31T10:51:51.930Z,35.81
2019-03-31T10:54:26.699Z,35.86
2019-03-31T10:57:01.388Z,35.86
2019-03-31T10:59:35.949Z,36.21
2019-03-31T11:02:11.921Z,35.97
2019-03-31T11:04:46.540Z,35.88
2019-03-31T11:07:21.306Z,35.81
2019-03-31T11:09:55.751Z,35.72
2019-03-31T11:12:30.362Z,35.70
2019-03-31T11:15:05.026Z,35.66
2019-03-31T11:17:39.464Z,35.66
2019-03-31T11:20:13.984Z,35.66
2019-03-31T11:22:56.743Z,36.01
2019-03-31T11:25:31.163Z,35.93
2019-03-31T11:28:06.910Z,35.80
2019-03-31T11:30:41.476Z,35.80
2019-03-31T11:33:16.004Z,35.87
2019-03-31T11:35:50.606Z,35.96
2019-03-31T11:38:25.135Z,35.91
2019-03-31T11:41:00.535Z,36.00
2019-03-31T11:43:36.510Z,36.00
2019-03-31T11:46:11.030Z,36.14
2019-03-31T11:48:45.711Z,35.94
2019-03-31T11:51:20.229Z,35.96
2019-03-31T11:53:54.775Z,36.11
2019-03-31T11:56:29.375Z,36.24
2019-03-31T11:59:04.003Z,36.33
2019-03-31T12:01:40.488Z,36.30
2019-03-31T12:04:15.033Z,36.15
2019-03-31T12:06:50.678Z,36.22
2019-03-31T12:09:25.384Z,36.07
2019-03-31T12:11:59.997Z,36.25
2019-03-31T12:14:34.593Z,36.46
2019-03-31T12:17:09.096Z,36.16
2019-03-31T12:19:43.591Z,36.36
2019-03-31T12:22:18.019Z,36.39
2019-03-31T12:24:52.510Z,35.77
2019-03-31T12:27:27.088Z,36.14
2019-03-31T12:30:01.478Z,36.09
2019-03-31T12:32:38.385Z,36.29
2019-03-31T12:35:13.915Z,36.11
2019-03-31T12:37:48.557Z,36.09
2019-03-31T12:40:33.053Z,36.08
2019-03-31T12:43:08.218Z,36.08
2019-03-31T12:45:43.252Z,36.42
2019-03-31T12:48:18.096Z,36.33
2019-03-31T12:50:52.717Z,36.27
2019-03-31T12:53:27.251Z,36.65
2019-03-31T12:56:01.895Z,36.51
2019-03-31T12:58:36.419Z,36.87
2019-03-31T13:01:11.082Z,36.44
2019-03-31T13:03:45.615Z,36.96
2019-03-31T13:06:20.027Z,36.39
2019-03-31T13:08:54.801Z,36.57
2019-03-31T13:11:29.247Z,37.25
2019-03-31T13:14:03.801Z,36.25
2019-03-31T13:16:39.338Z,36.22
2019-03-31T13:19:14.064Z,36.27
2019-03-31T13:21:49.690Z,36.41
2019-03-31T13:24:24.112Z,36.12
2019-03-31T13:26:58.636Z,36.11
2019-03-31T13:29:33.205Z,36.06
2019-03-31T13:32:07.863Z,36.01
2019-03-31T13:34:42.868Z,36.01
2019-03-31T13:37:17.501Z,36.02
2019-03-31T13:39:52.109Z,36.54
2019-03-31T13:42:26.662Z,36.36
2019-03-31T13:45:01.308Z,36.31
2019-03-31T13:47:35.772Z,36.24
2019-03-31T13:50:10.374Z,36.15
2019-03-31T13:52:44.934Z,36.12
2019-03-31T13:55:19.473Z,36.06
2019-03-31T13:57:54.760Z,36.02
2019-03-31T14:00:48.901Z,36.03
2019-03-31T14:03:23.927Z,36.05
2019-03-31T14:05:58.482Z,36.11
2019-03-31T14:08:33.054Z,36.14
2019-03-31T14:11:07.666Z,36.15
2019-03-31T14:13:42.547Z,36.13
2019-03-31T14:16:17.115Z,36.08
2019-03-31T14:18:51.638Z,36.02
2019-03-31T14:21:26.112Z,35.97
2019-03-31T14:24:00.671Z,35.95
2019-03-31T14:26:35.352Z,35.94
2019-03-31T14:29:09.835Z,35.97
2019-03-31T14:31:44.326Z,35.94
2019-03-31T14:34:18.869Z,35.94
2019-03-31T14:36:55.460Z,35.92
2019-03-31T14:39:29.962Z,35.91
2019-03-31T14:42:04.423Z,35.90
2019-03-31T14:44:38.979Z,35.90
2019-03-31T14:47:14.262Z,35.86
2019-03-31T14:49:48.877Z,35.83
2019-03-31T14:52:27.461Z,35.83
2019-03-31T14:55:00.387Z,35.79
2019-03-31T14:57:34.976Z,35.54
2019-03-31T15:00:14.873Z,35.68
2019-03-31T15:02:45.924Z,35.62
2019-03-31T15:05:20.456Z,35.59
2019-03-31T15:07:58.283Z,35.53
2019-03-31T15:10:32.333Z,35.51
2019-03-31T15:13:07.020Z,35.45
2019-03-31T15:15:44.799Z,35.41
2019-03-31T15:18:19.365Z,35.31
2019-03-31T15:20:53.905Z,35.28
2019-03-31T15:23:29.634Z,35.29
2019-03-31T15:26:04.273Z,35.23
2019-03-31T15:28:40.308Z,35.16
2019-03-31T15:31:14.865Z,35.11
2019-03-31T15:33:51.189Z,35.37
2019-03-31T15:36:27.354Z,35.50
2019-03-31T15:39:08.862Z,35.35
2019-03-31T15:41:38.572Z,31.11
2019-03-31T15:44:13.585Z,28.73
2019-03-31T15:46:48.264Z,27.46
2019-03-31T15:49:22.806Z,29.57
2019-03-31T15:51:57.512Z,29.30
2019-03-31T15:54:32.099Z,30.45
2019-03-31T15:57:06.682Z,31.45
2019-03-31T15:59:49.943Z,32.15
2019-03-31T16:02:26.003Z,32.60
2019-03-31T16:05:00.438Z,32.93
2019-03-31T16:07:35.069Z,33.18
2019-03-31T16:10:09.593Z,33.31
2019-03-31T16:12:43.224Z,33.42
2019-03-31T16:15:16.866Z,33.33
2019-03-31T16:17:52.396Z,33.51
2019-03-31T16:20:29.163Z,33.58
2019-03-31T16:23:02.894Z,33.63
2019-03-31T16:25:42.507Z,33.67
2019-03-31T16:28:17.281Z,33.67
2019-03-31T16:30:51.130Z,33.62
2019-03-31T16:33:24.938Z,33.70
2019-03-31T16:35:58.701Z,33.73
2019-03-31T16:38:34.044Z,33.71
2019-03-31T16:41:09.380Z,33.74
2019-03-31T16:43:43.208Z,33.74
2019-03-31T16:46:18.763Z,33.74
2019-03-31T16:48:52.822Z,33.74
2019-03-31T16:51:27.587Z,33.77
2019-03-31T16:54:01.606Z,33.78
2019-03-31T16:56:35.482Z,33.75
2019-03-31T16:59:09.208Z,33.72
2019-03-31T17:01:42.931Z,33.79
2019-03-31T17:04:16.796Z,33.80
2019-03-31T17:06:50.576Z,33.79
2019-03-31T17:09:24.372Z,33.81
2019-03-31T17:11:58.097Z,33.83
2019-03-31T17:14:32.303Z,33.82
2019-03-31T17:17:06.040Z,33.83
2019-03-31T17:19:39.789Z,33.85
2019-03-31T17:22:13.484Z,33.85
2019-03-31T17:24:47.488Z,33.88
2019-03-31T17:27:21.294Z,33.88
2019-03-31T17:29:54.956Z,33.89
2019-03-31T17:32:28.676Z,33.91
2019-03-31T17:35:02.820Z,33.92
2019-03-31T17:37:36.600Z,33.93
2019-03-31T17:40:10.523Z,33.96
2019-03-31T17:42:44.301Z,33.97
2019-03-31T17:45:18.295Z,33.96
2019-03-31T17:47:52.463Z,33.61
2019-03-31T17:50:26.218Z,33.75
2019-03-31T17:53:02.275Z,33.84
2019-03-31T17:55:35.607Z,33.97
2019-03-31T17:58:09.374Z,34.01
2019-03-31T18:00:43.553Z,34.04
2019-03-31T18:03:17.376Z,34.13
2019-03-31T18:05:51.734Z,34.22
2019-03-31T18:08:25.475Z,34.09
2019-03-31T18:10:59.448Z,34.09
2019-03-31T18:13:33.196Z,34.09
2019-03-31T18:16:07.186Z,34.21
2019-03-31T18:18:41.178Z,34.16
2019-03-31T18:21:14.803Z,34.22
2019-03-31T18:23:48.478Z,34.18
2019-03-31T18:26:22.539Z,34.19
2019-03-31T18:28:56.267Z,34.23
2019-03-31T18:31:31.143Z,34.26
2019-03-31T18:34:04.984Z,34.26
2019-03-31T18:36:38.718Z,34.31
2019-03-31T18:39:12.721Z,34.33
2019-03-31T18:41:46.703Z,34.30
2019-03-31T18:44:20.378Z,34.32
2019-03-31T18:46:54.063Z,34.32
2019-03-31T18:49:27.878Z,34.30
2019-03-31T18:52:01.747Z,34.38
2019-03-31T18:54:52.970Z,34.37
2019-03-31T18:57:36.065Z,34.33
2019-03-31T19:00:28.840Z,34.35
2019-03-31T19:03:14.137Z,34.31
2019-03-31T19:06:12.461Z,34.30
2019-03-31T19:09:03.797Z,34.31
2019-03-31T19:11:56.474Z,34.31
2019-03-31T19:14:48.099Z,34.33
2019-03-31T19:17:29.404Z,34.29
2019-03-31T19:20:34.135Z,34.30
2019-03-31T19:23:19.927Z,34.40
2019-03-31T19:26:20.536Z,34.33
2019-03-31T19:29:12.593Z,34.32
2019-03-31T19:31:58.869Z,34.32
2019-03-31T19:34:57.634Z,34.33
2019-03-31T19:38:02.099Z,34.36
2019-03-31T19:41:04.359Z,34.36
2019-03-31T19:43:53.951Z,34.36
2019-03-31T19:46:37.677Z,34.37
2019-03-31T19:49:36.884Z,34.38
2019-03-31T19:52:35.620Z,34.39
2019-03-31T19:55:37.428Z,34.38
2019-03-31T19:58:18.000Z,34.39
2019-03-31T20:01:11.086Z,34.39
2019-03-31T20:04:00.853Z,34.40
2019-03-31T20:06:42.780Z,34.41
2019-03-31T20:09:25.685Z,34.50
2019-03-31T20:12:11.780Z,34.38
2019-03-31T20:15:22.322Z,34.36
2019-03-31T20:18:09.649Z,34.35
2019-03-31T20:21:02.352Z,34.46
2019-03-31T20:23:53.720Z,34.39
2019-03-31T20:26:38.083Z,34.38
2019-03-31T20:29:32.446Z,34.43
2019-03-31T20:32:22.451Z,34.55
2019-03-31T20:35:04.130Z,34.46
2019-03-31T20:38:02.423Z,34.42
2019-03-31T20:40:40.944Z,34.49
2019-03-31T20:43:26.807Z,34.43
2019-03-31T20:46:04.114Z,34.42
2019-03-31T20:48:36.139Z,34.41
2019-03-31T20:51:09.957Z,34.53
2019-03-31T20:53:43.623Z,34.53
2019-03-31T20:56:17.397Z,34.78
2019-03-31T20:58:51.124Z,34.65
2019-03-31T21:01:24.894Z,34.51
2019-03-31T21:03:58.748Z,34.50
2019-03-31T21:06:32.684Z,34.52
2019-03-31T21:09:09.102Z,34.54
2019-03-31T21:11:42.958Z,34.56
2019-03-31T21:14:16.575Z,34.56
2019-03-31T21:16:50.336Z,34.58
2019-03-31T21:19:24.232Z,34.57
2019-03-31T21:21:57.991Z,34.58
2019-03-31T21:24:31.962Z,34.58
2019-03-31T21:27:05.854Z,34.58
2019-03-31T21:29:39.611Z,34.59
2019-03-31T21:32:13.657Z,34.56
2019-03-31T21:34:47.442Z,34.57
2019-03-31T21:37:21.193Z,34.56
2019-03-31T21:39:54.821Z,34.57
2019-03-31T21:42:28.501Z,34.57
2019-03-31T21:45:02.758Z,34.55
2019-03-31T21:47:36.811Z,34.54
2019-03-31T21:50:10.734Z,34.52
2019-03-31T21:52:44.714Z,34.53
2019-03-31T21:55:18.549Z,34.53
2019-03-31T21:57:52.379Z,34.51
2019-03-31T22:00:39.223Z,34.50
2019-03-31T22:03:12.939Z,34.51
2019-03-31T22:05:46.674Z,34.50
2019-03-31T22:08:20.296Z,34.51
2019-03-31T22:10:54.403Z,34.50
2019-03-31T22:13:28.129Z,34.48
2019-03-31T22:16:02.156Z,34.46
2019-03-31T22:18:35.959Z,34.45
2019-03-31T22:21:09.834Z,34.45
2019-03-31T22:23:57.126Z,34.43
2019-03-31T22:26:19.887Z,34.41
2019-03-31T22:28:53.886Z,34.42
2019-03-31T22:31:27.646Z,34.46
2019-03-31T22:34:01.670Z,34.53
2019-03-31T22:36:35.441Z,34.55
2019-03-31T22:39:09.159Z,34.48
2019-03-31T22:41:43.117Z,34.42
2019-03-31T22:44:16.754Z,34.46
2019-03-31T22:46:54.517Z,34.42
2019-03-31T22:49:25.885Z,34.41
2019-03-31T22:51:59.590Z,34.41
2019-03-31T22:54:33.368Z,34.42
2019-03-31T22:57:07.247Z,34.37
2019-03-31T22:59:40.976Z,34.37
2019-03-31T23:02:14.843Z,34.36
2019-03-31T23:04:48.679Z,34.46
2019-03-31T23:07:22.849Z,34.53
2019-03-31T23:09:56.755Z,34.53
2019-03-31T23:12:30.499Z,34.51
2019-03-31T23:15:04.323Z,34.51
2019-03-31T23:17:38.368Z,34.48
2019-03-31T23:20:12.112Z,34.44
2019-03-31T23:22:46.059Z,34.44
2019-03-31T23:25:19.775Z,34.42
2019-03-31T23:27:53.555Z,34.40
2019-03-31T23:30:27.369Z,34.39
2019-03-31T23:33:01.916Z,34.37
2019-03-31T23:35:35.560Z,34.37
2019-03-31T23:38:09.399Z,34.37
2019-03-31T23:40:43.106Z,34.35
2019-03-31T23:43:16.893Z,34.35
2019-03-31T23:45:50.626Z,34.35
2019-03-31T23:48:24.430Z,34.32
2019-03-31T23:50:58.064Z,34.33
2019-03-31T23:53:32.336Z,34.32
2019-03-31T23:56:05.984Z,34.29
2019-03-31T23:58:39.684Z,34.29
